Skip Navigation LinksHome page > Weather > Current weather Skip Navigation Links

Current Weather

New Tokyo International (Narita), Tokyo

For information only: do not use for flight planning or navigation.
Latest weather
Observation time Tuesday, February 9, 2016 10:00 PM JST
Local time Tuesday, February 9, 2016 10:35 PM JST
Flight conditions Visual Meteorological Conditions
Winds
Wind direction West-Northwest (300°)
Winds variable from 270° to 330°
Wind speed 8 mph
Visibility 6.2 mi.
Sky condition
Ceiling unlimited
Cloud layer few clouds 2,500 ft.
Temperature 41°F
Dewpoint 27°F
Altimeter 29.85 in.Hg
Derived measurements
Relative humidity 56%
Wind chill 36°F
Density altitude -910 ft.
Remarks
No significant changes expected in the next two hours.
METAR RJAA 091300Z 30007KT 270V330 9999 FEW025 05/M03 Q1011 NOSIG RMK 1CU025 A2985

Settings

Location code

InnerDrive.Weather 4.0.5722.1 Release CLR 4.0.30319.34209
Copyright ©2015 Inner Drive Technology. All rights reserved. Portions Copyright ©1986-2015 David Braverman.

Find weather

Site navigation


Skip Navigation Links

Place info

Page info

PayPal - The safer, easier way to pay online!

Return home.

Copyright ©2016 Inner Drive Technology. Purveyors of fine, hand-crafted computer software. Page printed 2016-02-09T13:35:45 UTC.